sensor_id;sensor_type;location;lat;lon;timestamp;pressure;altitude;pressure_sealevel;temperature;humidity
7474;BME280;3778;42.572;23.426;2022-10-16T00:00:53;73405.22;;;-146.70;75.02
7474;BME280;3778;42.572;23.426;2022-10-16T00:03:20;73413.50;;;-146.70;75.30
7474;BME280;3778;42.572;23.426;2022-10-16T00:05:47;73419.72;;;-146.70;75.23
7474;BME280;3778;42.572;23.426;2022-10-16T00:08:14;73432.16;;;-146.70;75.45
7474;BME280;3778;42.572;23.426;2022-10-16T00:10:41;73436.31;;;-146.70;75.69
7474;BME280;3778;42.572;23.426;2022-10-16T00:13:09;73459.13;;;-146.70;76.07
7474;BME280;3778;42.572;23.426;2022-10-16T00:15:36;73459.13;;;-146.70;76.09
7474;BME280;3778;42.572;23.426;2022-10-16T00:18:05;73454.97;;;-146.70;76.08
7474;BME280;3778;42.572;23.426;2022-10-16T00:20:34;73452.91;;;-146.70;75.95
7474;BME280;3778;42.572;23.426;2022-10-16T00:23:02;73459.13;;;-146.70;76.01
7474;BME280;3778;42.572;23.426;2022-10-16T00:25:29;73452.91;;;-146.70;75.94
7474;BME280;3778;42.572;23.426;2022-10-16T00:27:58;73465.34;;;-146.70;75.88
7474;BME280;3778;42.572;23.426;2022-10-16T00:30:26;73473.63;;;-146.70;76.04
7474;BME280;3778;42.572;23.426;2022-10-16T00:32:54;73475.69;;;-146.70;76.33
7474;BME280;3778;42.572;23.426;2022-10-16T00:35:21;73486.06;;;-146.70;76.49
7474;BME280;3778;42.572;23.426;2022-10-16T00:37:47;73484.00;;;-146.70;76.64
7474;BME280;3778;42.572;23.426;2022-10-16T00:40:14;73488.13;;;-146.70;76.52
7474;BME280;3778;42.572;23.426;2022-10-16T00:42:41;73490.22;;;-146.70;76.54
7474;BME280;3778;42.572;23.426;2022-10-16T00:45:09;73492.28;;;-146.70;76.33
7474;BME280;3778;42.572;23.426;2022-10-16T00:47:39;73496.44;;;-146.70;76.44
7474;BME280;3778;42.572;23.426;2022-10-16T00:50:10;73502.66;;;-146.70;76.50
7474;BME280;3778;42.572;23.426;2022-10-16T00:52:40;73506.78;;;-146.70;76.70
7474;BME280;3778;42.572;23.426;2022-10-16T00:55:09;73519.22;;;-146.70;77.03
7474;BME280;3778;42.572;23.426;2022-10-16T00:57:37;73527.53;;;-146.70;77.21
7474;BME280;3778;42.572;23.426;2022-10-16T01:00:06;73523.38;;;-146.70;77.31
7474;BME280;3778;42.572;23.426;2022-10-16T01:02:34;73531.66;;;-146.70;77.36
7474;BME280;3778;42.572;23.426;2022-10-16T01:05:03;73531.66;;;-146.70;77.39
7474;BME280;3778;42.572;23.426;2022-10-16T01:07:38;73531.66;;;-146.70;77.20
7474;BME280;3778;42.572;23.426;2022-10-16T01:10:17;73521.31;;;-146.70;77.10
7474;BME280;3778;42.572;23.426;2022-10-16T01:12:50;73527.53;;;-146.70;76.82
7474;BME280;3778;42.572;23.426;2022-10-16T01:15:25;73544.13;;;-146.70;76.98
7474;BME280;3778;42.572;23.426;2022-10-16T01:17:57;73552.41;;;-146.70;77.23
7474;BME280;3778;42.572;23.426;2022-10-16T01:20:30;73556.56;;;-146.70;77.33
7474;BME280;3778;42.572;23.426;2022-10-16T01:23:15;73560.69;;;-146.70;77.38
7474;BME280;3778;42.572;23.426;2022-10-16T01:26:09;73566.91;;;-146.70;77.32
7474;BME280;3778;42.572;23.426;2022-10-16T01:28:43;73573.13;;;-146.70;77.79
7474;BME280;3778;42.572;23.426;2022-10-16T01:31:15;73583.50;;;-146.70;78.15
7474;BME280;3778;42.572;23.426;2022-10-16T01:33:46;73579.34;;;-146.70;78.07
7474;BME280;3778;42.572;23.426;2022-10-16T01:36:16;73577.28;;;-146.70;78.06
7474;BME280;3778;42.572;23.426;2022-10-16T01:38:48;73579.34;;;-146.70;78.11
7474;BME280;3778;42.572;23.426;2022-10-16T01:41:18;73589.72;;;-146.70;78.36
7474;BME280;3778;42.572;23.426;2022-10-16T01:43:49;73595.94;;;-146.70;78.47
7474;BME280;3778;42.572;23.426;2022-10-16T01:46:20;73595.94;;;-146.70;78.38
7474;BME280;3778;42.572;23.426;2022-10-16T01:48:49;73593.88;;;-146.70;78.38
7474;BME280;3778;42.572;23.426;2022-10-16T01:51:18;73598.00;;;-146.70;78.38
7474;BME280;3778;42.572;23.426;2022-10-16T01:53:49;73606.31;;;-146.70;78.42
7474;BME280;3778;42.572;23.426;2022-10-16T01:56:19;73614.59;;;-146.70;78.48
7474;BME280;3778;42.572;23.426;2022-10-16T01:58:54;73629.09;;;-146.70;78.81
7474;BME280;3778;42.572;23.426;2022-10-16T02:01:24;73631.19;;;-146.70;78.91
7474;BME280;3778;42.572;23.426;2022-10-16T02:03:54;73629.09;;;-146.70;78.77
7474;BME280;3778;42.572;23.426;2022-10-16T02:06:23;73631.19;;;-146.70;79.05
7474;BME280;3778;42.572;23.426;2022-10-16T02:08:51;73635.31;;;-146.70;79.15
7474;BME280;3778;42.572;23.426;2022-10-16T02:11:18;73641.53;;;-146.70;79.00
7474;BME280;3778;42.572;23.426;2022-10-16T02:13:46;73639.47;;;-146.70;78.96
7474;BME280;3778;42.572;23.426;2022-10-16T02:16:16;73641.53;;;-146.70;79.06
7474;BME280;3778;42.572;23.426;2022-10-16T02:18:43;73635.31;;;-146.70;79.45
7474;BME280;3778;42.572;23.426;2022-10-16T02:21:15;73635.31;;;-146.70;79.46
7474;BME280;3778;42.572;23.426;2022-10-16T02:23:47;73624.97;;;-146.70;79.80
7474;BME280;3778;42.572;23.426;2022-10-16T02:26:26;73627.03;;;-146.70;80.05
7474;BME280;3778;42.572;23.426;2022-10-16T02:28:59;73616.66;;;-146.70;80.23
7474;BME280;3778;42.572;23.426;2022-10-16T02:31:33;73629.09;;;-146.70;80.49
7474;BME280;3778;42.572;23.426;2022-10-16T02:34:03;73635.31;;;-146.70;80.73
7474;BME280;3778;42.572;23.426;2022-10-16T02:36:32;73647.75;;;-146.70;80.76
7474;BME280;3778;42.572;23.426;2022-10-16T02:39:02;73662.28;;;-146.70;80.75
7474;BME280;3778;42.572;23.426;2022-10-16T02:41:30;73668.50;;;-146.70;80.87
7474;BME280;3778;42.572;23.426;2022-10-16T02:43:57;73672.66;;;-146.70;81.27
7474;BME280;3778;42.572;23.426;2022-10-16T02:46:24;73668.50;;;-146.70;81.64
7474;BME280;3778;42.572;23.426;2022-10-16T02:48:52;73664.34;;;-146.70;81.92
7474;BME280;3778;42.572;23.426;2022-10-16T02:51:18;73672.66;;;-146.70;82.11
7474;BME280;3778;42.572;23.426;2022-10-16T02:53:45;73676.78;;;-146.70;81.78
7474;BME280;3778;42.572;23.426;2022-10-16T02:56:12;73676.78;;;-146.70;81.80
7474;BME280;3778;42.572;23.426;2022-10-16T02:58:39;73680.94;;;-146.70;81.83
7474;BME280;3778;42.572;23.426;2022-10-16T03:01:05;73680.94;;;-146.70;82.10
7474;BME280;3778;42.572;23.426;2022-10-16T03:03:33;73689.22;;;-146.70;82.32
7474;BME280;3778;42.572;23.426;2022-10-16T03:06:01;73691.31;;;-146.70;82.39
7474;BME280;3778;42.572;23.426;2022-10-16T03:08:28;73693.38;;;-146.70;82.55
7474;BME280;3778;42.572;23.426;2022-10-16T03:10:56;73691.31;;;-146.70;82.51
7474;BME280;3778;42.572;23.426;2022-10-16T03:13:22;73695.44;;;-146.70;82.51
7474;BME280;3778;42.572;23.426;2022-10-16T03:15:49;73697.53;;;-146.70;82.46
7474;BME280;3778;42.572;23.426;2022-10-16T03:18:16;73703.75;;;-146.70;82.76
7474;BME280;3778;42.572;23.426;2022-10-16T03:20:43;73714.09;;;-146.70;82.79
7474;BME280;3778;42.572;23.426;2022-10-16T03:23:11;73718.25;;;-146.70;83.03
7474;BME280;3778;42.572;23.426;2022-10-16T03:25:38;73716.19;;;-146.70;83.32
7474;BME280;3778;42.572;23.426;2022-10-16T03:28:05;73712.03;;;-146.70;83.59
7474;BME280;3778;42.572;23.426;2022-10-16T03:30:32;73714.09;;;-146.70;83.73
7474;BME280;3778;42.572;23.426;2022-10-16T03:32:59;73720.31;;;-146.70;84.13
7474;BME280;3778;42.572;23.426;2022-10-16T03:35:26;73730.69;;;-146.70;84.25
7474;BME280;3778;42.572;23.426;2022-10-16T03:37:52;73728.63;;;-146.70;84.38
7474;BME280;3778;42.572;23.426;2022-10-16T03:40:21;73728.63;;;-146.70;84.45
7474;BME280;3778;42.572;23.426;2022-10-16T03:42:47;73726.53;;;-146.70;84.54
7474;BME280;3778;42.572;23.426;2022-10-16T03:45:14;73726.53;;;-146.70;84.71
7474;BME280;3778;42.572;23.426;2022-10-16T03:47:41;73724.47;;;-146.70;84.73
7474;BME280;3778;42.572;23.426;2022-10-16T03:50:08;73726.53;;;-146.70;84.85
7474;BME280;3778;42.572;23.426;2022-10-16T03:52:35;73734.84;;;-146.70;84.84
7474;BME280;3778;42.572;23.426;2022-10-16T03:55:02;73730.69;;;-146.70;84.69
7474;BME280;3778;42.572;23.426;2022-10-16T03:57:30;73734.84;;;-146.70;84.76
7474;BME280;3778;42.572;23.426;2022-10-16T03:59:57;73730.69;;;-146.70;84.84
7474;BME280;3778;42.572;23.426;2022-10-16T04:02:24;73734.84;;;-146.70;84.79
7474;BME280;3778;42.572;23.426;2022-10-16T04:04:50;73730.69;;;-146.70;84.69
7474;BME280;3778;42.572;23.426;2022-10-16T04:07:17;73730.69;;;-146.70;84.56
7474;BME280;3778;42.572;23.426;2022-10-16T04:09:44;73741.06;;;-146.70;84.51
7474;BME280;3778;42.572;23.426;2022-10-16T04:12:11;73741.06;;;-146.70;84.34
7474;BME280;3778;42.572;23.426;2022-10-16T04:14:39;73749.34;;;-146.70;84.28
7474;BME280;3778;42.572;23.426;2022-10-16T04:17:06;73753.50;;;-146.70;84.04
7474;BME280;3778;42.572;23.426;2022-10-16T04:19:33;73753.50;;;-146.70;84.17
7474;BME280;3778;42.572;23.426;2022-10-16T04:22:00;73749.34;;;-146.70;84.13
7474;BME280;3778;42.572;23.426;2022-10-16T04:24:26;73753.50;;;-146.70;84.22
7474;BME280;3778;42.572;23.426;2022-10-16T04:26:53;73745.19;;;-146.70;84.13
7474;BME280;3778;42.572;23.426;2022-10-16T04:29:20;73749.34;;;-146.70;84.32
7474;BME280;3778;42.572;23.426;2022-10-16T04:31:48;73751.41;;;-146.70;84.31
7474;BME280;3778;42.572;23.426;2022-10-16T04:34:15;73757.66;;;-146.70;84.44
7474;BME280;3778;42.572;23.426;2022-10-16T04:36:42;73757.66;;;-146.70;84.62
7474;BME280;3778;42.572;23.426;2022-10-16T04:39:08;73755.56;;;-146.70;84.61
7474;BME280;3778;42.572;23.426;2022-10-16T04:41:35;73761.78;;;-146.70;84.54
7474;BME280;3778;42.572;23.426;2022-10-16T04:44:02;73763.88;;;-146.70;84.51
7474;BME280;3778;42.572;23.426;2022-10-16T04:46:29;73763.88;;;-146.70;84.30
7474;BME280;3778;42.572;23.426;2022-10-16T04:48:57;73770.09;;;-146.70;84.36
7474;BME280;3778;42.572;23.426;2022-10-16T04:51:24;73770.09;;;-146.70;84.19
7474;BME280;3778;42.572;23.426;2022-10-16T04:53:52;73776.31;;;-146.70;84.00
7474;BME280;3778;42.572;23.426;2022-10-16T04:56:19;73770.09;;;-146.70;84.26
7474;BME280;3778;42.572;23.426;2022-10-16T04:58:46;73772.16;;;-146.70;84.22
7474;BME280;3778;42.572;23.426;2022-10-16T05:01:13;73774.22;;;-146.70;84.32
7474;BME280;3778;42.572;23.426;2022-10-16T05:03:40;73772.16;;;-146.70;84.33
7474;BME280;3778;42.572;23.426;2022-10-16T05:06:08;73774.22;;;-146.70;84.26
7474;BME280;3778;42.572;23.426;2022-10-16T05:08:35;73772.16;;;-146.70;84.40
7474;BME280;3778;42.572;23.426;2022-10-16T05:11:01;73778.38;;;-146.70;84.35
7474;BME280;3778;42.572;23.426;2022-10-16T05:13:28;73776.31;;;-146.70;84.45
7474;BME280;3778;42.572;23.426;2022-10-16T05:15:55;73774.22;;;-146.70;84.31
7474;BME280;3778;42.572;23.426;2022-10-16T05:18:22;73782.53;;;-146.70;84.33
7474;BME280;3778;42.572;23.426;2022-10-16T05:20:49;73782.53;;;-146.70;84.17
7474;BME280;3778;42.572;23.426;2022-10-16T05:23:17;73788.75;;;-146.70;84.03
7474;BME280;3778;42.572;23.426;2022-10-16T05:25:52;73786.66;;;-146.70;83.94
7474;BME280;3778;42.572;23.426;2022-10-16T05:28:19;73778.38;;;-146.70;83.80
7474;BME280;3778;42.572;23.426;2022-10-16T05:30:46;73778.38;;;-146.70;83.83
7474;BME280;3778;42.572;23.426;2022-10-16T05:33:13;73776.31;;;-146.70;83.92
7474;BME280;3778;42.572;23.426;2022-10-16T05:35:39;73774.22;;;-146.70;83.77
7474;BME280;3778;42.572;23.426;2022-10-16T05:38:07;73770.09;;;-146.70;83.93
7474;BME280;3778;42.572;23.426;2022-10-16T05:40:35;73759.72;;;-146.70;83.82
7474;BME280;3778;42.572;23.426;2022-10-16T05:43:01;73753.50;;;-146.70;83.75
7474;BME280;3778;42.572;23.426;2022-10-16T05:45:28;73755.56;;;-146.70;83.66
7474;BME280;3778;42.572;23.426;2022-10-16T05:47:55;73753.50;;;-146.70;83.36
7474;BME280;3778;42.572;23.426;2022-10-16T05:50:22;73751.41;;;-146.70;83.28
7474;BME280;3778;42.572;23.426;2022-10-16T05:52:48;73749.34;;;-146.70;83.27
7474;BME280;3778;42.572;23.426;2022-10-16T05:55:15;73751.41;;;-146.70;83.05
7474;BME280;3778;42.572;23.426;2022-10-16T05:57:43;73736.91;;;-146.70;82.77
7474;BME280;3778;42.572;23.426;2022-10-16T06:00:10;73734.84;;;-146.70;82.38
7474;BME280;3778;42.572;23.426;2022-10-16T06:02:37;73730.69;;;-146.70;82.16
7474;BME280;3778;42.572;23.426;2022-10-16T06:05:04;73722.41;;;-146.70;81.97
7474;BME280;3778;42.572;23.426;2022-10-16T06:07:34;73718.25;;;-146.70;82.01
7474;BME280;3778;42.572;23.426;2022-10-16T06:10:02;73707.88;;;-146.70;81.86
7474;BME280;3778;42.572;23.426;2022-10-16T06:12:29;73709.97;;;-146.70;81.75
7474;BME280;3778;42.572;23.426;2022-10-16T06:14:57;73705.81;;;-146.70;81.53
7474;BME280;3778;42.572;23.426;2022-10-16T06:17:24;73703.75;;;-146.70;81.48
7474;BME280;3778;42.572;23.426;2022-10-16T06:19:51;73695.44;;;-146.70;81.20
7474;BME280;3778;42.572;23.426;2022-10-16T06:22:18;73685.09;;;-146.70;81.08
7474;BME280;3778;42.572;23.426;2022-10-16T06:24:45;73680.94;;;-146.70;80.79
7474;BME280;3778;42.572;23.426;2022-10-16T06:27:12;73676.78;;;-146.70;80.63
7474;BME280;3778;42.572;23.426;2022-10-16T06:29:39;73668.50;;;-146.70;80.73
7474;BME280;3778;42.572;23.426;2022-10-16T06:32:09;73658.13;;;-146.70;80.46
7474;BME280;3778;42.572;23.426;2022-10-16T06:34:36;73651.91;;;-146.70;80.26
7474;BME280;3778;42.572;23.426;2022-10-16T06:37:05;73656.06;;;-146.70;80.11
7474;BME280;3778;42.572;23.426;2022-10-16T06:39:32;73656.06;;;-146.70;80.20
7474;BME280;3778;42.572;23.426;2022-10-16T06:41:58;73647.75;;;-146.70;80.02
7474;BME280;3778;42.572;23.426;2022-10-16T06:44:25;73643.63;;;-146.70;79.76
7474;BME280;3778;42.572;23.426;2022-10-16T06:46:52;73635.31;;;-146.70;79.72
7474;BME280;3778;42.572;23.426;2022-10-16T06:49:20;73641.53;;;-146.70;79.29
7474;BME280;3778;42.572;23.426;2022-10-16T06:51:48;73635.31;;;-146.70;79.24
7474;BME280;3778;42.572;23.426;2022-10-16T06:54:15;73631.19;;;-146.70;79.18
7474;BME280;3778;42.572;23.426;2022-10-16T06:56:43;73620.81;;;-146.70;78.96
7474;BME280;3778;42.572;23.426;2022-10-16T06:59:10;73622.88;;;-146.70;78.86
7474;BME280;3778;42.572;23.426;2022-10-16T07:01:36;73614.59;;;-146.70;78.69
7474;BME280;3778;42.572;23.426;2022-10-16T07:04:03;73595.94;;;-146.70;78.25
7474;BME280;3778;42.572;23.426;2022-10-16T07:06:33;73587.66;;;-146.70;77.87
7474;BME280;3778;42.572;23.426;2022-10-16T07:09:02;73583.50;;;-146.70;77.62
7474;BME280;3778;42.572;23.426;2022-10-16T07:11:29;73573.13;;;-146.70;77.24
7474;BME280;3778;42.572;23.426;2022-10-16T07:13:56;73560.69;;;-146.70;76.82
7474;BME280;3778;42.572;23.426;2022-10-16T07:16:24;73554.47;;;-146.70;76.60
7474;BME280;3778;42.572;23.426;2022-10-16T07:18:51;73535.81;;;-146.70;76.48
7474;BME280;3778;42.572;23.426;2022-10-16T07:21:23;73531.66;;;-146.70;75.96
7474;BME280;3778;42.572;23.426;2022-10-16T07:23:53;73535.81;;;-146.70;75.49
7474;BME280;3778;42.572;23.426;2022-10-16T07:26:21;73519.22;;;-146.70;75.52
7474;BME280;3778;42.572;23.426;2022-10-16T07:28:48;73494.34;;;-146.70;75.46
7474;BME280;3778;42.572;23.426;2022-10-16T07:31:16;73486.06;;;-146.70;74.53
7474;BME280;3778;42.572;23.426;2022-10-16T07:33:45;73484.00;;;-146.70;74.09
7474;BME280;3778;42.572;23.426;2022-10-16T07:36:14;73465.34;;;-146.70;74.30
7474;BME280;3778;42.572;23.426;2022-10-16T07:38:41;73461.19;;;-146.70;73.38
7474;BME280;3778;42.572;23.426;2022-10-16T07:41:12;73459.13;;;-146.70;73.33
7474;BME280;3778;42.572;23.426;2022-10-16T07:43:39;73434.25;;;-146.70;72.85
7474;BME280;3778;42.572;23.426;2022-10-16T07:46:06;73428.03;;;-146.70;72.27
7474;BME280;3778;42.572;23.426;2022-10-16T07:48:34;73411.44;;;-146.70;71.91
7474;BME280;3778;42.572;23.426;2022-10-16T07:51:02;73390.72;;;-146.70;71.89
7474;BME280;3778;42.572;23.426;2022-10-16T07:53:29;73380.34;;;-146.70;71.49
7474;BME280;3778;42.572;23.426;2022-10-16T07:55:57;73374.13;;;-146.70;71.02
7474;BME280;3778;42.572;23.426;2022-10-16T07:58:26;73363.75;;;-146.70;70.27
7474;BME280;3778;42.572;23.426;2022-10-16T08:00:53;73340.97;;;-146.70;70.00
7474;BME280;3778;42.572;23.426;2022-10-16T08:03:20;73338.88;;;-146.70;70.08
7474;BME280;3778;42.572;23.426;2022-10-16T08:05:47;73320.22;;;-146.70;70.27
7474;BME280;3778;42.572;23.426;2022-10-16T08:08:15;73307.78;;;-146.70;68.70
7474;BME280;3778;42.572;23.426;2022-10-16T08:10:42;73297.44;;;-146.70;68.62
7474;BME280;3778;42.572;23.426;2022-10-16T08:13:09;73270.47;;;-146.70;69.16
7474;BME280;3778;42.572;23.426;2022-10-16T08:15:37;73266.34;;;-146.70;67.92
7474;BME280;3778;42.572;23.426;2022-10-16T08:18:05;73249.75;;;-146.70;67.09
7474;BME280;3778;42.572;23.426;2022-10-16T08:20:33;73224.88;;;-146.70;66.59
7474;BME280;3778;42.572;23.426;2022-10-16T08:23:00;73216.56;;;-146.70;65.21
7474;BME280;3778;42.572;23.426;2022-10-16T08:25:27;73204.16;;;-146.70;64.78
7474;BME280;3778;42.572;23.426;2022-10-16T08:27:54;73166.84;;;-146.70;63.44
7474;BME280;3778;42.572;23.426;2022-10-16T08:30:23;73152.31;;;-146.70;63.23
7474;BME280;3778;42.572;23.426;2022-10-16T08:32:51;73137.81;;;-146.70;61.17
7474;BME280;3778;42.572;23.426;2022-10-16T08:35:18;73121.22;;;-146.70;60.47
7474;BME280;3778;42.572;23.426;2022-10-16T08:37:45;73100.50;;;-146.70;57.40
7474;BME280;3778;42.572;23.426;2022-10-16T08:40:17;73092.22;;;-146.70;57.72
7474;BME280;3778;42.572;23.426;2022-10-16T08:43:00;73088.06;;;-146.70;56.91
7474;BME280;3778;42.572;23.426;2022-10-16T08:45:43;73086.00;;;-146.70;56.16
7474;BME280;3778;42.572;23.426;2022-10-16T08:48:20;73063.19;;;-146.70;56.37
7474;BME280;3778;42.572;23.426;2022-10-16T08:50:49;73050.75;;;-146.70;56.33
7474;BME280;3778;42.572;23.426;2022-10-16T08:53:31;73054.91;;;-146.70;55.92
7474;BME280;3778;42.572;23.426;2022-10-16T08:56:03;73054.91;;;-146.70;55.33
7474;BME280;3778;42.572;23.426;2022-10-16T08:58:31;73042.47;;;-146.70;57.14
7474;BME280;3778;42.572;23.426;2022-10-16T09:01:00;73042.47;;;-146.70;55.44
7474;BME280;3778;42.572;23.426;2022-10-16T09:03:43;73032.09;;;-146.70;56.52
7474;BME280;3778;42.572;23.426;2022-10-16T09:06:35;73001.00;;;-146.70;56.60
7474;BME280;3778;42.572;23.426;2022-10-16T09:09:25;72963.69;;;-146.70;55.55
7474;BME280;3778;42.572;23.426;2022-10-16T09:12:08;72974.06;;;-146.70;54.88
7474;BME280;3778;42.572;23.426;2022-10-16T09:14:46;72969.91;;;-146.70;54.45
7474;BME280;3778;42.572;23.426;2022-10-16T09:17:30;72967.84;;;-146.70;54.18
7474;BME280;3778;42.572;23.426;2022-10-16T09:20:17;72959.56;;;-146.70;54.50
7474;BME280;3778;42.572;23.426;2022-10-16T09:22:46;72947.13;;;-146.70;54.01
7474;BME280;3778;42.572;23.426;2022-10-16T09:25:15;72930.53;;;-146.70;54.18
7474;BME280;3778;42.572;23.426;2022-10-16T09:27:45;72928.47;;;-146.70;52.75
7474;BME280;3778;42.572;23.426;2022-10-16T09:30:15;72922.25;;;-146.70;52.98
7474;BME280;3778;42.572;23.426;2022-10-16T09:32:44;72916.03;;;-146.70;52.35
7474;BME280;3778;42.572;23.426;2022-10-16T09:35:15;72905.66;;;-146.70;50.79
7474;BME280;3778;42.572;23.426;2022-10-16T09:37:44;72909.81;;;-146.70;50.96
7474;BME280;3778;42.572;23.426;2022-10-16T09:40:23;72899.44;;;-146.70;50.72
7474;BME280;3778;42.572;23.426;2022-10-16T09:42:55;72880.78;;;-146.70;52.56
7474;BME280;3778;42.572;23.426;2022-10-16T09:45:24;72889.06;;;-146.70;52.64
7474;BME280;3778;42.572;23.426;2022-10-16T09:47:51;72882.84;;;-146.70;51.28
7474;BME280;3778;42.572;23.426;2022-10-16T09:50:23;72843.47;;;-146.70;48.87
7474;BME280;3778;42.572;23.426;2022-10-16T09:53:03;72831.03;;;-146.70;48.74
7474;BME280;3778;42.572;23.426;2022-10-16T09:55:32;72835.19;;;-146.70;48.23
7474;BME280;3778;42.572;23.426;2022-10-16T09:57:59;72843.47;;;-146.70;48.59
7474;BME280;3778;42.572;23.426;2022-10-16T10:00:26;72814.47;;;-146.70;47.80
7474;BME280;3778;42.572;23.426;2022-10-16T10:02:53;72797.88;;;-146.70;48.82
7474;BME280;3778;42.572;23.426;2022-10-16T10:05:25;72781.28;;;-146.70;47.13
7474;BME280;3778;42.572;23.426;2022-10-16T10:07:55;72797.88;;;-146.70;50.27
7474;BME280;3778;42.572;23.426;2022-10-16T10:10:26;72785.44;;;-146.70;48.91
7474;BME280;3778;42.572;23.426;2022-10-16T10:12:56;72779.22;;;-146.70;46.90
7474;BME280;3778;42.572;23.426;2022-10-16T10:15:24;72768.84;;;-146.70;48.82
7474;BME280;3778;42.572;23.426;2022-10-16T10:17:54;72791.66;;;-146.70;49.04
7474;BME280;3778;42.572;23.426;2022-10-16T10:20:27;72775.06;;;-146.70;48.08
7474;BME280;3778;42.572;23.426;2022-10-16T10:22:54;72756.41;;;-146.70;46.58
7474;BME280;3778;42.572;23.426;2022-10-16T10:28:18;72723.25;;;-146.70;47.77
7474;BME280;3778;42.572;23.426;2022-10-16T10:30:56;72719.13;;;-146.70;48.32
7474;BME280;3778;42.572;23.426;2022-10-16T10:33:31;72696.31;;;-146.70;47.54
7474;BME280;3778;42.572;23.426;2022-10-16T10:36:20;72729.47;;;-146.70;46.43
7474;BME280;3778;42.572;23.426;2022-10-16T10:38:50;72704.59;;;-146.70;47.74
7474;BME280;3778;42.572;23.426;2022-10-16T10:44:18;72656.94;;;-146.70;45.49
7474;BME280;3778;42.572;23.426;2022-10-16T10:46:50;72661.09;;;-146.70;45.11
7474;BME280;3778;42.572;23.426;2022-10-16T10:49:31;72636.22;;;-146.70;45.43
7474;BME280;3778;42.572;23.426;2022-10-16T10:52:19;72625.84;;;-146.70;45.93
7474;BME280;3778;42.572;23.426;2022-10-16T10:54:55;72642.44;;;-146.70;44.29
7474;BME280;3778;42.572;23.426;2022-10-16T10:57:29;72627.91;;;-146.70;44.73
7474;BME280;3778;42.572;23.426;2022-10-16T11:00:10;72615.47;;;-146.70;44.14
7474;BME280;3778;42.572;23.426;2022-10-16T11:02:48;72615.47;;;-146.70;44.08
7474;BME280;3778;42.572;23.426;2022-10-16T11:05:38;72594.75;;;-146.70;44.45
7474;BME280;3778;42.572;23.426;2022-10-16T11:08:13;72590.63;;;-146.70;44.16
7474;BME280;3778;42.572;23.426;2022-10-16T11:10:46;72582.31;;;-146.70;44.27
7474;BME280;3778;42.572;23.426;2022-10-16T11:13:21;72555.38;;;-146.70;44.85
7474;BME280;3778;42.572;23.426;2022-10-16T11:15:53;72532.59;;;-146.70;44.37
7474;BME280;3778;42.572;23.426;2022-10-16T11:18:26;72501.50;;;-146.70;43.82
7474;BME280;3778;42.572;23.426;2022-10-16T11:20:57;72520.16;;;-146.70;42.57
7474;BME280;3778;42.572;23.426;2022-10-16T11:23:31;72493.22;;;-146.70;42.70
7474;BME280;3778;42.572;23.426;2022-10-16T11:26:03;72487.00;;;-146.70;42.04
7474;BME280;3778;42.572;23.426;2022-10-16T11:28:35;72482.84;;;-146.70;41.46
7474;BME280;3778;42.572;23.426;2022-10-16T11:31:08;72476.63;;;-146.70;42.87
7474;BME280;3778;42.572;23.426;2022-10-16T11:33:40;72462.13;;;-146.70;40.86
7474;BME280;3778;42.572;23.426;2022-10-16T11:36:12;72437.25;;;-146.70;40.23
7474;BME280;3778;42.572;23.426;2022-10-16T11:38:48;72453.81;;;-146.70;39.83
7474;BME280;3778;42.572;23.426;2022-10-16T11:41:23;72447.63;;;-146.70;38.55
7474;BME280;3778;42.572;23.426;2022-10-16T11:43:58;72445.53;;;-146.70;38.17
7474;BME280;3778;42.572;23.426;2022-10-16T11:46:31;72424.81;;;-146.70;37.73
7474;BME280;3778;42.572;23.426;2022-10-16T11:49:03;72439.31;;;-146.70;37.20
7474;BME280;3778;42.572;23.426;2022-10-16T11:51:38;72428.97;;;-146.70;37.19
7474;BME280;3778;42.572;23.426;2022-10-16T11:54:16;72399.94;;;-146.70;37.05
7474;BME280;3778;42.572;23.426;2022-10-16T11:56:48;72385.44;;;-146.70;36.01
7474;BME280;3778;42.572;23.426;2022-10-16T11:59:22;72387.50;;;-146.70;35.61
7474;BME280;3778;42.572;23.426;2022-10-16T12:01:56;72402.00;;;-146.70;36.46
7474;BME280;3778;42.572;23.426;2022-10-16T12:04:29;72354.34;;;-146.70;36.37
7474;BME280;3778;42.572;23.426;2022-10-16T12:07:03;72348.13;;;-146.70;36.41
7474;BME280;3778;42.572;23.426;2022-10-16T12:09:36;72335.69;;;-146.70;34.90
7474;BME280;3778;42.572;23.426;2022-10-16T12:12:04;72337.78;;;-146.70;35.25
7474;BME280;3778;42.572;23.426;2022-10-16T12:14:37;72337.78;;;-146.70;35.21
7474;BME280;3778;42.572;23.426;2022-10-16T12:17:23;72296.31;;;-146.70;35.76
7474;BME280;3778;42.572;23.426;2022-10-16T12:20:00;72304.59;;;-146.70;35.52
7474;BME280;3778;42.572;23.426;2022-10-16T12:22:29;72333.63;;;-146.70;33.47
7474;BME280;3778;42.572;23.426;2022-10-16T12:24:58;72292.19;;;-146.70;34.23
7474;BME280;3778;42.572;23.426;2022-10-16T12:27:28;72265.22;;;-146.70;33.48
7474;BME280;3778;42.572;23.426;2022-10-16T12:29:57;72285.97;;;-146.70;33.73
7474;BME280;3778;42.572;23.426;2022-10-16T12:32:29;72267.31;;;-146.70;33.05
7474;BME280;3778;42.572;23.426;2022-10-16T12:34:57;72294.25;;;-146.70;33.72
7474;BME280;3778;42.572;23.426;2022-10-16T12:37:27;72271.44;;;-146.70;33.44
7474;BME280;3778;42.572;23.426;2022-10-16T12:39:55;72250.72;;;-146.70;33.48
7474;BME280;3778;42.572;23.426;2022-10-16T12:42:33;72234.16;;;-146.70;33.40
7474;BME280;3778;42.572;23.426;2022-10-16T12:45:01;72242.44;;;-146.70;34.56
7474;BME280;3778;42.572;23.426;2022-10-16T12:47:46;72211.34;;;-146.70;35.33
7474;BME280;3778;42.572;23.426;2022-10-16T12:50:26;72198.91;;;-146.70;32.93
7474;BME280;3778;42.572;23.426;2022-10-16T12:52:53;72221.72;;;-146.70;33.19
7474;BME280;3778;42.572;23.426;2022-10-16T12:55:21;72225.84;;;-146.70;34.05
7474;BME280;3778;42.572;23.426;2022-10-16T12:58:03;72221.72;;;-146.70;33.36
7474;BME280;3778;42.572;23.426;2022-10-16T13:00:39;72196.84;;;-146.70;33.38
7474;BME280;3778;42.572;23.426;2022-10-16T13:03:35;72192.69;;;-146.70;32.73
7474;BME280;3778;42.572;23.426;2022-10-16T13:06:17;72153.31;;;-146.70;32.68
7474;BME280;3778;42.572;23.426;2022-10-16T13:09:10;72186.47;;;-146.70;33.03
7474;BME280;3778;42.572;23.426;2022-10-16T13:11:52;72169.91;;;-146.70;32.91